sensor_id;sensor_type;location;lat;lon;timestamp;P1;durP1;ratioP1;P2;durP2;ratioP2
18702;SDS011;9481;48.796;9.210;2022-12-16T00:01:22;30.90;;;17.70;;
18702;SDS011;9481;48.796;9.210;2022-12-16T00:03:50;29.27;;;17.47;;
18702;SDS011;9481;48.796;9.210;2022-12-16T00:06:18;27.50;;;18.03;;
18702;SDS011;9481;48.796;9.210;2022-12-16T00:08:46;27.80;;;16.80;;
18702;SDS011;9481;48.796;9.210;2022-12-16T00:11:12;30.17;;;17.10;;
18702;SDS011;9481;48.796;9.210;2022-12-16T00:13:38;31.00;;;16.97;;
18702;SDS011;9481;48.796;9.210;2022-12-16T00:16:06;29.40;;;16.97;;
18702;SDS011;9481;48.796;9.210;2022-12-16T00:18:35;29.17;;;16.70;;
18702;SDS011;9481;48.796;9.210;2022-12-16T00:21:02;31.80;;;17.70;;
18702;SDS011;9481;48.796;9.210;2022-12-16T00:23:29;27.07;;;15.93;;
18702;SDS011;9481;48.796;9.210;2022-12-16T00:25:56;28.73;;;17.03;;
18702;SDS011;9481;48.796;9.210;2022-12-16T00:28:22;30.67;;;17.17;;
18702;SDS011;9481;48.796;9.210;2022-12-16T00:30:49;28.60;;;17.47;;
18702;SDS011;9481;48.796;9.210;2022-12-16T00:33:17;26.70;;;15.90;;
18702;SDS011;9481;48.796;9.210;2022-12-16T00:35:44;29.23;;;17.50;;
18702;SDS011;9481;48.796;9.210;2022-12-16T00:38:10;28.27;;;17.53;;
18702;SDS011;9481;48.796;9.210;2022-12-16T00:40:36;30.40;;;17.67;;
18702;SDS011;9481;48.796;9.210;2022-12-16T00:43:02;32.93;;;17.80;;
18702;SDS011;9481;48.796;9.210;2022-12-16T00:45:28;29.10;;;18.60;;
18702;SDS011;9481;48.796;9.210;2022-12-16T00:47:54;28.90;;;16.73;;
18702;SDS011;9481;48.796;9.210;2022-12-16T00:50:20;30.73;;;18.23;;
18702;SDS011;9481;48.796;9.210;2022-12-16T00:52:46;30.03;;;17.50;;
18702;SDS011;9481;48.796;9.210;2022-12-16T00:55:12;30.47;;;18.40;;
18702;SDS011;9481;48.796;9.210;2022-12-16T00:57:39;30.57;;;17.67;;
18702;SDS011;9481;48.796;9.210;2022-12-16T01:00:05;29.47;;;18.03;;
18702;SDS011;9481;48.796;9.210;2022-12-16T01:02:37;29.93;;;17.70;;
18702;SDS011;9481;48.796;9.210;2022-12-16T01:05:08;30.17;;;17.77;;
18702;SDS011;9481;48.796;9.210;2022-12-16T01:07:36;29.93;;;17.83;;
18702;SDS011;9481;48.796;9.210;2022-12-16T01:10:02;29.23;;;16.93;;
18702;SDS011;9481;48.796;9.210;2022-12-16T01:12:30;29.90;;;17.60;;
18702;SDS011;9481;48.796;9.210;2022-12-16T01:14:56;27.23;;;17.20;;
18702;SDS011;9481;48.796;9.210;2022-12-16T01:17:22;28.70;;;17.00;;
18702;SDS011;9481;48.796;9.210;2022-12-16T01:19:50;31.37;;;16.97;;
18702;SDS011;9481;48.796;9.210;2022-12-16T01:22:19;29.73;;;16.97;;
18702;SDS011;9481;48.796;9.210;2022-12-16T01:24:47;28.50;;;16.53;;
18702;SDS011;9481;48.796;9.210;2022-12-16T01:27:13;32.27;;;17.50;;
18702;SDS011;9481;48.796;9.210;2022-12-16T01:29:39;30.23;;;17.13;;
18702;SDS011;9481;48.796;9.210;2022-12-16T01:32:05;27.10;;;15.93;;
18702;SDS011;9481;48.796;9.210;2022-12-16T01:34:35;29.43;;;17.07;;
18702;SDS011;9481;48.796;9.210;2022-12-16T01:37:01;32.10;;;18.13;;
18702;SDS011;9481;48.796;9.210;2022-12-16T01:39:27;27.73;;;17.10;;
18702;SDS011;9481;48.796;9.210;2022-12-16T01:41:54;26.97;;;16.13;;
18702;SDS011;9481;48.796;9.210;2022-12-16T01:44:24;29.17;;;16.60;;
18702;SDS011;9481;48.796;9.210;2022-12-16T01:46:55;26.10;;;14.67;;
18702;SDS011;9481;48.796;9.210;2022-12-16T01:49:30;25.13;;;14.80;;
18702;SDS011;9481;48.796;9.210;2022-12-16T01:52:06;24.97;;;15.47;;
18702;SDS011;9481;48.796;9.210;2022-12-16T01:54:52;28.03;;;17.00;;
18702;SDS011;9481;48.796;9.210;2022-12-16T01:57:35;29.07;;;16.70;;
18702;SDS011;9481;48.796;9.210;2022-12-16T02:00:07;31.97;;;16.30;;
18702;SDS011;9481;48.796;9.210;2022-12-16T02:02:34;29.50;;;15.63;;
18702;SDS011;9481;48.796;9.210;2022-12-16T02:05:00;29.90;;;16.93;;
18702;SDS011;9481;48.796;9.210;2022-12-16T02:13:32;30.43;;;17.20;;
18702;SDS011;9481;48.796;9.210;2022-12-16T02:16:32;29.40;;;16.87;;
18702;SDS011;9481;48.796;9.210;2022-12-16T02:22:16;29.57;;;16.40;;
18702;SDS011;9481;48.796;9.210;2022-12-16T02:31:59;26.03;;;15.97;;
18702;SDS011;9481;48.796;9.210;2022-12-16T02:37:45;26.50;;;15.57;;
18702;SDS011;9481;48.796;9.210;2022-12-16T02:43:40;29.67;;;16.33;;
18702;SDS011;9481;48.796;9.210;2022-12-16T02:46:21;28.70;;;16.30;;
18702;SDS011;9481;48.796;9.210;2022-12-16T02:48:51;28.63;;;16.43;;
18702;SDS011;9481;48.796;9.210;2022-12-16T02:51:18;29.23;;;16.60;;
18702;SDS011;9481;48.796;9.210;2022-12-16T02:53:47;26.73;;;15.97;;
18702;SDS011;9481;48.796;9.210;2022-12-16T02:56:23;28.23;;;16.33;;
18702;SDS011;9481;48.796;9.210;2022-12-16T03:02:18;31.70;;;16.97;;
18702;SDS011;9481;48.796;9.210;2022-12-16T03:04:56;27.77;;;15.57;;
18702;SDS011;9481;48.796;9.210;2022-12-16T03:07:59;29.53;;;16.43;;
18702;SDS011;9481;48.796;9.210;2022-12-16T03:10:31;30.03;;;16.03;;
18702;SDS011;9481;48.796;9.210;2022-12-16T03:13:04;27.50;;;15.67;;
18702;SDS011;9481;48.796;9.210;2022-12-16T03:15:32;30.73;;;16.30;;
18702;SDS011;9481;48.796;9.210;2022-12-16T03:18:00;29.07;;;17.00;;
18702;SDS011;9481;48.796;9.210;2022-12-16T03:20:32;29.70;;;16.20;;
18702;SDS011;9481;48.796;9.210;2022-12-16T03:23:07;27.17;;;16.67;;
18702;SDS011;9481;48.796;9.210;2022-12-16T03:25:40;27.07;;;16.70;;
18702;SDS011;9481;48.796;9.210;2022-12-16T03:31:05;29.37;;;16.33;;
18702;SDS011;9481;48.796;9.210;2022-12-16T03:34:08;26.50;;;16.30;;
18702;SDS011;9481;48.796;9.210;2022-12-16T03:37:02;25.17;;;15.43;;
18702;SDS011;9481;48.796;9.210;2022-12-16T03:39:33;26.67;;;15.07;;
18702;SDS011;9481;48.796;9.210;2022-12-16T03:42:08;26.03;;;14.63;;
18702;SDS011;9481;48.796;9.210;2022-12-16T03:44:35;25.63;;;15.50;;
18702;SDS011;9481;48.796;9.210;2022-12-16T03:47:01;26.53;;;15.20;;
18702;SDS011;9481;48.796;9.210;2022-12-16T03:49:27;25.00;;;15.20;;
18702;SDS011;9481;48.796;9.210;2022-12-16T03:51:53;27.33;;;15.70;;
18702;SDS011;9481;48.796;9.210;2022-12-16T03:54:19;26.53;;;15.73;;
18702;SDS011;9481;48.796;9.210;2022-12-16T03:56:46;27.87;;;15.47;;
18702;SDS011;9481;48.796;9.210;2022-12-16T03:59:12;25.00;;;15.43;;
18702;SDS011;9481;48.796;9.210;2022-12-16T04:01:38;28.17;;;15.67;;
18702;SDS011;9481;48.796;9.210;2022-12-16T04:04:05;26.50;;;15.77;;
18702;SDS011;9481;48.796;9.210;2022-12-16T04:06:30;27.37;;;16.60;;
18702;SDS011;9481;48.796;9.210;2022-12-16T04:08:56;26.20;;;15.67;;
18702;SDS011;9481;48.796;9.210;2022-12-16T04:11:22;25.23;;;14.77;;
18702;SDS011;9481;48.796;9.210;2022-12-16T04:14:07;29.50;;;15.80;;
18702;SDS011;9481;48.796;9.210;2022-12-16T04:16:52;26.07;;;15.57;;
18702;SDS011;9481;48.796;9.210;2022-12-16T04:19:37;28.70;;;14.53;;
18702;SDS011;9481;48.796;9.210;2022-12-16T04:22:26;25.83;;;14.47;;
18702;SDS011;9481;48.796;9.210;2022-12-16T04:25:27;26.63;;;15.53;;
18702;SDS011;9481;48.796;9.210;2022-12-16T04:27:58;24.30;;;15.17;;
18702;SDS011;9481;48.796;9.210;2022-12-16T04:30:24;25.40;;;14.73;;
18702;SDS011;9481;48.796;9.210;2022-12-16T04:35:38;24.10;;;14.30;;
18702;SDS011;9481;48.796;9.210;2022-12-16T04:38:22;24.23;;;14.47;;
18702;SDS011;9481;48.796;9.210;2022-12-16T04:41:07;24.87;;;14.27;;
18702;SDS011;9481;48.796;9.210;2022-12-16T04:43:52;27.03;;;14.60;;
18702;SDS011;9481;48.796;9.210;2022-12-16T04:46:36;22.37;;;13.23;;
18702;SDS011;9481;48.796;9.210;2022-12-16T04:49:21;23.97;;;13.67;;
18702;SDS011;9481;48.796;9.210;2022-12-16T04:52:05;23.87;;;13.80;;
18702;SDS011;9481;48.796;9.210;2022-12-16T04:54:50;22.23;;;12.97;;
18702;SDS011;9481;48.796;9.210;2022-12-16T04:57:34;22.43;;;12.67;;
18702;SDS011;9481;48.796;9.210;2022-12-16T05:00:18;19.43;;;12.07;;
18702;SDS011;9481;48.796;9.210;2022-12-16T05:03:02;21.40;;;12.73;;
18702;SDS011;9481;48.796;9.210;2022-12-16T05:05:47;23.33;;;13.53;;
18702;SDS011;9481;48.796;9.210;2022-12-16T05:08:31;21.33;;;11.83;;
18702;SDS011;9481;48.796;9.210;2022-12-16T05:11:32;22.43;;;13.27;;
18702;SDS011;9481;48.796;9.210;2022-12-16T05:14:16;26.57;;;13.53;;
18702;SDS011;9481;48.796;9.210;2022-12-16T05:17:01;21.90;;;12.43;;
18702;SDS011;9481;48.796;9.210;2022-12-16T05:19:45;21.90;;;12.07;;
18702;SDS011;9481;48.796;9.210;2022-12-16T05:22:30;18.20;;;11.67;;
18702;SDS011;9481;48.796;9.210;2022-12-16T05:25:15;23.77;;;12.70;;
18702;SDS011;9481;48.796;9.210;2022-12-16T05:27:59;21.67;;;12.37;;
18702;SDS011;9481;48.796;9.210;2022-12-16T05:30:44;21.83;;;11.87;;
18702;SDS011;9481;48.796;9.210;2022-12-16T05:33:28;19.77;;;12.07;;
18702;SDS011;9481;48.796;9.210;2022-12-16T05:36:13;20.13;;;11.93;;
18702;SDS011;9481;48.796;9.210;2022-12-16T05:38:57;20.50;;;12.83;;
18702;SDS011;9481;48.796;9.210;2022-12-16T05:41:41;21.50;;;12.10;;
18702;SDS011;9481;48.796;9.210;2022-12-16T05:44:26;19.40;;;12.20;;
18702;SDS011;9481;48.796;9.210;2022-12-16T05:47:10;22.30;;;11.93;;
18702;SDS011;9481;48.796;9.210;2022-12-16T05:49:55;22.47;;;12.73;;
18702;SDS011;9481;48.796;9.210;2022-12-16T05:52:40;19.27;;;11.63;;
18702;SDS011;9481;48.796;9.210;2022-12-16T05:55:31;19.30;;;11.23;;
18702;SDS011;9481;48.796;9.210;2022-12-16T05:58:16;21.07;;;11.20;;
18702;SDS011;9481;48.796;9.210;2022-12-16T06:01:00;19.83;;;11.23;;
18702;SDS011;9481;48.796;9.210;2022-12-16T06:03:44;22.83;;;12.13;;
18702;SDS011;9481;48.796;9.210;2022-12-16T06:06:28;20.47;;;11.83;;
18702;SDS011;9481;48.796;9.210;2022-12-16T06:09:12;19.60;;;11.43;;
18702;SDS011;9481;48.796;9.210;2022-12-16T06:11:56;18.73;;;11.17;;
18702;SDS011;9481;48.796;9.210;2022-12-16T06:14:41;18.53;;;10.73;;
18702;SDS011;9481;48.796;9.210;2022-12-16T06:17:25;18.40;;;10.50;;
18702;SDS011;9481;48.796;9.210;2022-12-16T06:20:10;21.27;;;11.80;;
18702;SDS011;9481;48.796;9.210;2022-12-16T06:22:54;16.77;;;10.30;;
18702;SDS011;9481;48.796;9.210;2022-12-16T06:25:39;18.80;;;10.47;;
18702;SDS011;9481;48.796;9.210;2022-12-16T06:28:23;16.37;;;10.27;;
18702;SDS011;9481;48.796;9.210;2022-12-16T06:31:08;17.93;;;10.93;;
18702;SDS011;9481;48.796;9.210;2022-12-16T06:33:53;18.07;;;10.30;;
18702;SDS011;9481;48.796;9.210;2022-12-16T06:36:37;16.47;;;10.33;;
18702;SDS011;9481;48.796;9.210;2022-12-16T06:39:21;17.50;;;10.33;;
18702;SDS011;9481;48.796;9.210;2022-12-16T06:42:05;19.70;;;9.43;;
18702;SDS011;9481;48.796;9.210;2022-12-16T06:44:50;16.43;;;10.10;;
18702;SDS011;9481;48.796;9.210;2022-12-16T06:47:34;17.20;;;9.43;;
18702;SDS011;9481;48.796;9.210;2022-12-16T06:50:21;18.83;;;10.17;;
18702;SDS011;9481;48.796;9.210;2022-12-16T06:53:05;18.37;;;10.23;;
18702;SDS011;9481;48.796;9.210;2022-12-16T06:55:50;14.97;;;9.93;;
18702;SDS011;9481;48.796;9.210;2022-12-16T06:58:34;18.23;;;9.53;;
18702;SDS011;9481;48.796;9.210;2022-12-16T07:01:19;18.80;;;10.00;;
18702;SDS011;9481;48.796;9.210;2022-12-16T07:04:03;17.23;;;9.50;;
18702;SDS011;9481;48.796;9.210;2022-12-16T07:06:48;16.13;;;9.63;;
18702;SDS011;9481;48.796;9.210;2022-12-16T07:09:32;17.17;;;9.87;;
18702;SDS011;9481;48.796;9.210;2022-12-16T07:12:16;18.33;;;9.67;;
18702;SDS011;9481;48.796;9.210;2022-12-16T07:15:01;17.90;;;9.80;;
18702;SDS011;9481;48.796;9.210;2022-12-16T07:17:45;16.17;;;10.00;;
18702;SDS011;9481;48.796;9.210;2022-12-16T07:20:29;16.97;;;9.83;;
18702;SDS011;9481;48.796;9.210;2022-12-16T07:23:14;17.83;;;9.77;;
18702;SDS011;9481;48.796;9.210;2022-12-16T07:25:58;17.67;;;9.97;;
18702;SDS011;9481;48.796;9.210;2022-12-16T07:28:42;18.03;;;10.07;;
18702;SDS011;9481;48.796;9.210;2022-12-16T07:31:27;15.67;;;9.47;;
18702;SDS011;9481;48.796;9.210;2022-12-16T07:34:11;14.27;;;8.13;;
18702;SDS011;9481;48.796;9.210;2022-12-16T07:36:55;13.90;;;8.77;;
18702;SDS011;9481;48.796;9.210;2022-12-16T07:39:40;17.60;;;9.40;;
18702;SDS011;9481;48.796;9.210;2022-12-16T07:42:24;16.20;;;8.80;;
18702;SDS011;9481;48.796;9.210;2022-12-16T07:45:09;14.83;;;8.50;;
18702;SDS011;9481;48.796;9.210;2022-12-16T07:47:54;13.37;;;8.70;;
18702;SDS011;9481;48.796;9.210;2022-12-16T07:50:39;13.33;;;8.60;;
18702;SDS011;9481;48.796;9.210;2022-12-16T07:53:23;12.87;;;8.30;;
18702;SDS011;9481;48.796;9.210;2022-12-16T07:56:09;15.43;;;8.47;;
18702;SDS011;9481;48.796;9.210;2022-12-16T07:58:54;13.97;;;8.87;;
18702;SDS011;9481;48.796;9.210;2022-12-16T08:01:39;14.13;;;8.67;;
18702;SDS011;9481;48.796;9.210;2022-12-16T08:04:23;11.90;;;7.80;;
18702;SDS011;9481;48.796;9.210;2022-12-16T08:07:09;13.57;;;8.60;;
18702;SDS011;9481;48.796;9.210;2022-12-16T08:09:54;11.33;;;7.60;;
18702;SDS011;9481;48.796;9.210;2022-12-16T08:12:39;13.20;;;8.00;;
18702;SDS011;9481;48.796;9.210;2022-12-16T08:15:23;13.90;;;7.53;;
18702;SDS011;9481;48.796;9.210;2022-12-16T08:18:07;10.40;;;7.10;;
18702;SDS011;9481;48.796;9.210;2022-12-16T08:20:51;10.57;;;6.80;;
18702;SDS011;9481;48.796;9.210;2022-12-16T08:23:35;11.10;;;6.90;;
18702;SDS011;9481;48.796;9.210;2022-12-16T08:26:20;11.37;;;7.37;;
18702;SDS011;9481;48.796;9.210;2022-12-16T08:29:04;10.37;;;7.10;;
18702;SDS011;9481;48.796;9.210;2022-12-16T08:31:49;11.43;;;7.17;;
18702;SDS011;9481;48.796;9.210;2022-12-16T08:34:33;11.37;;;7.17;;
18702;SDS011;9481;48.796;9.210;2022-12-16T08:37:17;12.40;;;6.67;;
18702;SDS011;9481;48.796;9.210;2022-12-16T08:40:02;10.70;;;6.90;;
18702;SDS011;9481;48.796;9.210;2022-12-16T08:42:47;12.40;;;6.97;;
18702;SDS011;9481;48.796;9.210;2022-12-16T08:45:32;11.20;;;7.10;;
18702;SDS011;9481;48.796;9.210;2022-12-16T08:48:16;10.20;;;6.83;;
18702;SDS011;9481;48.796;9.210;2022-12-16T08:51:01;11.23;;;7.17;;
18702;SDS011;9481;48.796;9.210;2022-12-16T08:53:48;10.03;;;6.70;;
18702;SDS011;9481;48.796;9.210;2022-12-16T08:56:33;11.60;;;6.70;;
18702;SDS011;9481;48.796;9.210;2022-12-16T08:59:18;12.60;;;6.97;;
18702;SDS011;9481;48.796;9.210;2022-12-16T09:02:02;12.03;;;7.73;;
18702;SDS011;9481;48.796;9.210;2022-12-16T09:04:46;10.87;;;7.40;;
18702;SDS011;9481;48.796;9.210;2022-12-16T09:07:31;10.40;;;6.73;;
18702;SDS011;9481;48.796;9.210;2022-12-16T09:10:15;11.20;;;7.30;;
18702;SDS011;9481;48.796;9.210;2022-12-16T09:13:06;10.53;;;6.90;;
18702;SDS011;9481;48.796;9.210;2022-12-16T09:15:52;10.50;;;7.13;;
18702;SDS011;9481;48.796;9.210;2022-12-16T09:18:36;11.63;;;7.63;;
18702;SDS011;9481;48.796;9.210;2022-12-16T09:21:21;9.00;;;6.67;;
18702;SDS011;9481;48.796;9.210;2022-12-16T09:24:05;11.13;;;6.63;;
18702;SDS011;9481;48.796;9.210;2022-12-16T09:26:49;7.97;;;6.10;;
18702;SDS011;9481;48.796;9.210;2022-12-16T09:29:34;9.50;;;6.93;;
18702;SDS011;9481;48.796;9.210;2022-12-16T09:32:20;10.57;;;7.43;;
18702;SDS011;9481;48.796;9.210;2022-12-16T09:35:04;10.43;;;6.77;;
18702;SDS011;9481;48.796;9.210;2022-12-16T09:37:49;10.13;;;6.90;;
18702;SDS011;9481;48.796;9.210;2022-12-16T09:40:33;9.77;;;6.13;;
18702;SDS011;9481;48.796;9.210;2022-12-16T09:52:23;13.13;;;6.93;;
18702;SDS011;9481;48.796;9.210;2022-12-16T09:55:21;10.37;;;6.80;;
18702;SDS011;9481;48.796;9.210;2022-12-16T09:58:11;12.17;;;7.40;;
18702;SDS011;9481;48.796;9.210;2022-12-16T10:00:57;9.77;;;6.30;;
18702;SDS011;9481;48.796;9.210;2022-12-16T10:03:43;9.27;;;6.63;;
18702;SDS011;9481;48.796;9.210;2022-12-16T10:06:43;10.37;;;6.40;;
18702;SDS011;9481;48.796;9.210;2022-12-16T10:21:58;10.43;;;6.83;;
18702;SDS011;9481;48.796;9.210;2022-12-16T10:28:05;9.90;;;6.30;;
18702;SDS011;9481;48.796;9.210;2022-12-16T10:31:00;9.77;;;6.27;;
18702;SDS011;9481;48.796;9.210;2022-12-16T10:33:53;9.00;;;5.80;;
18702;SDS011;9481;48.796;9.210;2022-12-16T10:36:37;10.37;;;6.33;;
18702;SDS011;9481;48.796;9.210;2022-12-16T10:39:27;9.47;;;5.80;;
18702;SDS011;9481;48.796;9.210;2022-12-16T10:42:20;11.67;;;6.60;;
18702;SDS011;9481;48.796;9.210;2022-12-16T10:45:23;10.57;;;6.47;;
18702;SDS011;9481;48.796;9.210;2022-12-16T10:48:13;9.80;;;6.33;;
18702;SDS011;9481;48.796;9.210;2022-12-16T10:51:04;10.60;;;6.80;;
18702;SDS011;9481;48.796;9.210;2022-12-16T10:54:22;10.03;;;6.43;;
18702;SDS011;9481;48.796;9.210;2022-12-16T11:00:54;10.27;;;6.60;;
18702;SDS011;9481;48.796;9.210;2022-12-16T11:03:38;11.20;;;6.53;;
18702;SDS011;9481;48.796;9.210;2022-12-16T11:06:26;9.70;;;6.27;;
18702;SDS011;9481;48.796;9.210;2022-12-16T11:09:30;9.23;;;6.20;;
18702;SDS011;9481;48.796;9.210;2022-12-16T11:15:26;7.93;;;5.67;;
18702;SDS011;9481;48.796;9.210;2022-12-16T11:27:01;14.83;;;7.07;;
18702;SDS011;9481;48.796;9.210;2022-12-16T11:33:05;9.63;;;6.20;;
18702;SDS011;9481;48.796;9.210;2022-12-16T11:36:10;10.07;;;6.27;;
18702;SDS011;9481;48.796;9.210;2022-12-16T11:39:12;11.77;;;6.63;;
18702;SDS011;9481;48.796;9.210;2022-12-16T11:42:01;11.03;;;6.93;;
18702;SDS011;9481;48.796;9.210;2022-12-16T11:44:51;11.93;;;7.20;;
18702;SDS011;9481;48.796;9.210;2022-12-16T11:50:40;10.27;;;6.40;;
18702;SDS011;9481;48.796;9.210;2022-12-16T11:53:35;13.23;;;7.57;;
18702;SDS011;9481;48.796;9.210;2022-12-16T11:56:52;11.43;;;6.87;;
18702;SDS011;9481;48.796;9.210;2022-12-16T11:59:40;11.50;;;7.00;;
18702;SDS011;9481;48.796;9.210;2022-12-16T12:02:35;10.50;;;6.73;;
18702;SDS011;9481;48.796;9.210;2022-12-16T12:06:22;11.40;;;6.87;;
18702;SDS011;9481;48.796;9.210;2022-12-16T12:09:12;10.47;;;6.53;;
18702;SDS011;9481;48.796;9.210;2022-12-16T12:12:26;12.33;;;7.10;;
18702;SDS011;9481;48.796;9.210;2022-12-16T12:15:41;9.97;;;6.10;;
18702;SDS011;9481;48.796;9.210;2022-12-16T12:18:39;10.20;;;6.23;;
18702;SDS011;9481;48.796;9.210;2022-12-16T12:21:53;13.27;;;6.27;;
18702;SDS011;9481;48.796;9.210;2022-12-16T12:24:59;9.20;;;5.70;;
18702;SDS011;9481;48.796;9.210;2022-12-16T12:28:09;8.83;;;5.83;;
18702;SDS011;9481;48.796;9.210;2022-12-16T12:34:47;10.47;;;6.43;;
18702;SDS011;9481;48.796;9.210;2022-12-16T12:38:03;10.97;;;6.53;;
18702;SDS011;9481;48.796;9.210;2022-12-16T12:41:02;10.70;;;6.93;;
18702;SDS011;9481;48.796;9.210;2022-12-16T12:44:21;10.67;;;5.70;;
18702;SDS011;9481;48.796;9.210;2022-12-16T12:47:30;10.77;;;6.27;;
18702;SDS011;9481;48.796;9.210;2022-12-16T12:50:41;11.70;;;6.07;;
18702;SDS011;9481;48.796;9.210;2022-12-16T12:53:50;7.93;;;5.13;;
18702;SDS011;9481;48.796;9.210;2022-12-16T12:56:50;9.07;;;5.40;;
18702;SDS011;9481;48.796;9.210;2022-12-16T12:59:55;10.63;;;6.13;;
18702;SDS011;9481;48.796;9.210;2022-12-16T13:06:22;8.87;;;5.90;;
18702;SDS011;9481;48.796;9.210;2022-12-16T13:09:21;9.37;;;6.07;;
18702;SDS011;9481;48.796;9.210;2022-12-16T13:15:01;8.13;;;5.50;;
18702;SDS011;9481;48.796;9.210;2022-12-16T13:18:46;8.77;;;5.80;;
18702;SDS011;9481;48.796;9.210;2022-12-16T13:21:41;10.13;;;6.00;;
18702;SDS011;9481;48.796;9.210;2022-12-16T13:24:18;8.63;;;6.17;;
18702;SDS011;9481;48.796;9.210;2022-12-16T13:27:12;10.03;;;6.10;;
18702;SDS011;9481;48.796;9.210;2022-12-16T13:30:00;11.50;;;6.77;;
18702;SDS011;9481;48.796;9.210;2022-12-16T13:32:52;10.37;;;5.90;;
18702;SDS011;9481;48.796;9.210;2022-12-16T13:35:54;12.37;;;6.43;;
18702;SDS011;9481;48.796;9.210;2022-12-16T13:38:44;12.17;;;6.70;;
18702;SDS011;9481;48.796;9.210;2022-12-16T13:48:00;12.57;;;6.50;;
18702;SDS011;9481;48.796;9.210;2022-12-16T13:56:35;12.53;;;6.83;;
18702;SDS011;9481;48.796;9.210;2022-12-16T13:59:25;10.40;;;6.93;;
18702;SDS011;9481;48.796;9.210;2022-12-16T14:02:18;11.90;;;6.67;;
18702;SDS011;9481;48.796;9.210;2022-12-16T14:05:18;10.60;;;7.07;;
18702;SDS011;9481;48.796;9.210;2022-12-16T14:08:12;11.17;;;6.27;;
18702;SDS011;9481;48.796;9.210;2022-12-16T14:11:04;11.77;;;6.93;;
18702;SDS011;9481;48.796;9.210;2022-12-16T14:14:10;11.33;;;6.53;;
18702;SDS011;9481;48.796;9.210;2022-12-16T14:17:09;11.30;;;7.13;;
18702;SDS011;9481;48.796;9.210;2022-12-16T14:20:25;15.10;;;6.87;;
18702;SDS011;9481;48.796;9.210;2022-12-16T14:23:35;12.07;;;7.57;;
18702;SDS011;9481;48.796;9.210;2022-12-16T14:26:26;13.80;;;7.17;;
18702;SDS011;9481;48.796;9.210;2022-12-16T14:29:14;10.40;;;6.73;;
18702;SDS011;9481;48.796;9.210;2022-12-16T14:35:11;11.83;;;6.87;;
18702;SDS011;9481;48.796;9.210;2022-12-16T14:38:11;9.93;;;6.50;;
18702;SDS011;9481;48.796;9.210;2022-12-16T14:41:14;9.77;;;6.17;;
18702;SDS011;9481;48.796;9.210;2022-12-16T14:44:04;8.93;;;6.10;;
18702;SDS011;9481;48.796;9.210;2022-12-16T14:47:02;11.87;;;6.80;;
18702;SDS011;9481;48.796;9.210;2022-12-16T14:49:47;10.20;;;6.20;;
18702;SDS011;9481;48.796;9.210;2022-12-16T14:52:36;10.27;;;6.00;;
18702;SDS011;9481;48.796;9.210;2022-12-16T14:55:28;10.50;;;6.60;;
18702;SDS011;9481;48.796;9.210;2022-12-16T14:58:17;8.27;;;6.10;;
18702;SDS011;9481;48.796;9.210;2022-12-16T15:01:14;9.13;;;6.10;;
18702;SDS011;9481;48.796;9.210;2022-12-16T15:04:05;9.63;;;6.40;;
18702;SDS011;9481;48.796;9.210;2022-12-16T15:06:59;10.93;;;6.00;;
18702;SDS011;9481;48.796;9.210;2022-12-16T15:09:49;10.73;;;6.53;;
18702;SDS011;9481;48.796;9.210;2022-12-16T15:12:38;10.87;;;6.53;;
18702;SDS011;9481;48.796;9.210;2022-12-16T15:18:24;10.40;;;6.00;;
18702;SDS011;9481;48.796;9.210;2022-12-16T15:21:16;9.20;;;6.47;;
18702;SDS011;9481;48.796;9.210;2022-12-16T15:24:01;9.43;;;5.53;;
18702;SDS011;9481;48.796;9.210;2022-12-16T15:30:01;10.50;;;5.87;;
18702;SDS011;9481;48.796;9.210;2022-12-16T15:33:05;11.17;;;6.13;;
18702;SDS011;9481;48.796;9.210;2022-12-16T15:36:02;8.70;;;6.00;;
18702;SDS011;9481;48.796;9.210;2022-12-16T15:38:49;9.60;;;5.93;;
18702;SDS011;9481;48.796;9.210;2022-12-16T15:41:34;10.43;;;5.97;;
18702;SDS011;9481;48.796;9.210;2022-12-16T15:44:21;10.23;;;6.53;;
18702;SDS011;9481;48.796;9.210;2022-12-16T15:47:30;10.23;;;5.90;;
18702;SDS011;9481;48.796;9.210;2022-12-16T15:50:18;8.73;;;6.13;;
18702;SDS011;9481;48.796;9.210;2022-12-16T15:53:40;11.30;;;6.43;;
18702;SDS011;9481;48.796;9.210;2022-12-16T15:56:31;11.13;;;6.77;;
18702;SDS011;9481;48.796;9.210;2022-12-16T15:59:27;10.37;;;6.00;;
18702;SDS011;9481;48.796;9.210;2022-12-16T16:02:24;8.93;;;5.40;;
18702;SDS011;9481;48.796;9.210;2022-12-16T16:05:17;11.17;;;6.03;;
18702;SDS011;9481;48.796;9.210;2022-12-16T16:08:04;9.80;;;5.53;;
18702;SDS011;9481;48.796;9.210;2022-12-16T16:10:49;9.53;;;6.00;;
18702;SDS011;9481;48.796;9.210;2022-12-16T16:13:33;9.47;;;5.60;;
18702;SDS011;9481;48.796;9.210;2022-12-16T16:16:18;10.47;;;6.17;;
18702;SDS011;9481;48.796;9.210;2022-12-16T16:19:02;10.57;;;5.73;;
18702;SDS011;9481;48.796;9.210;2022-12-16T16:22:18;10.23;;;5.77;;
18702;SDS011;9481;48.796;9.210;2022-12-16T16:25:02;11.43;;;6.10;;
18702;SDS011;9481;48.796;9.210;2022-12-16T16:27:47;10.33;;;6.27;;
18702;SDS011;9481;48.796;9.210;2022-12-16T16:30:31;12.47;;;6.20;;
18702;SDS011;9481;48.796;9.210;2022-12-16T16:33:16;11.50;;;6.97;;
18702;SDS011;9481;48.796;9.210;2022-12-16T16:36:00;12.57;;;6.80;;
18702;SDS011;9481;48.796;9.210;2022-12-16T16:38:55;13.13;;;6.60;;
18702;SDS011;9481;48.796;9.210;2022-12-16T16:41:39;11.40;;;7.20;;
18702;SDS011;9481;48.796;9.210;2022-12-16T16:44:24;11.87;;;6.87;;
18702;SDS011;9481;48.796;9.210;2022-12-16T16:47:09;9.17;;;6.37;;
18702;SDS011;9481;48.796;9.210;2022-12-16T16:49:59;12.83;;;7.13;;
18702;SDS011;9481;48.796;9.210;2022-12-16T16:52:44;10.60;;;6.23;;
18702;SDS011;9481;48.796;9.210;2022-12-16T16:55:28;11.30;;;6.50;;
18702;SDS011;9481;48.796;9.210;2022-12-16T16:58:15;14.83;;;6.97;;
18702;SDS011;9481;48.796;9.210;2022-12-16T17:01:10;12.13;;;7.23;;
18702;SDS011;9481;48.796;9.210;2022-12-16T17:03:57;12.63;;;7.07;;
18702;SDS011;9481;48.796;9.210;2022-12-16T17:06:42;13.50;;;7.30;;
18702;SDS011;9481;48.796;9.210;2022-12-16T17:09:26;11.37;;;7.00;;
18702;SDS011;9481;48.796;9.210;2022-12-16T17:12:17;12.27;;;7.20;;
18702;SDS011;9481;48.796;9.210;2022-12-16T17:15:19;12.63;;;6.90;;
18702;SDS011;9481;48.796;9.210;2022-12-16T17:18:08;11.83;;;7.10;;
18702;SDS011;9481;48.796;9.210;2022-12-16T17:20:53;13.17;;;7.33;;
18702;SDS011;9481;48.796;9.210;2022-12-16T17:23:38;12.30;;;7.60;;
18702;SDS011;9481;48.796;9.210;2022-12-16T17:26:23;14.60;;;7.57;;
18702;SDS011;9481;48.796;9.210;2022-12-16T17:29:14;12.90;;;7.57;;
18702;SDS011;9481;48.796;9.210;2022-12-16T17:32:09;12.47;;;7.13;;
18702;SDS011;9481;48.796;9.210;2022-12-16T17:34:54;15.13;;;8.23;;
18702;SDS011;9481;48.796;9.210;2022-12-16T17:37:39;16.27;;;7.80;;
18702;SDS011;9481;48.796;9.210;2022-12-16T17:40:24;13.33;;;7.50;;
18702;SDS011;9481;48.796;9.210;2022-12-16T17:43:08;14.40;;;8.13;;
18702;SDS011;9481;48.796;9.210;2022-12-16T17:46:00;16.03;;;8.27;;
18702;SDS011;9481;48.796;9.210;2022-12-16T17:48:51;13.97;;;8.30;;
18702;SDS011;9481;48.796;9.210;2022-12-16T17:51:40;13.67;;;8.10;;
18702;SDS011;9481;48.796;9.210;2022-12-16T17:54:26;12.43;;;7.80;;
18702;SDS011;9481;48.796;9.210;2022-12-16T17:57:10;14.67;;;8.43;;
18702;SDS011;9481;48.796;9.210;2022-12-16T17:59:55;12.90;;;7.90;;
18702;SDS011;9481;48.796;9.210;2022-12-16T18:02:39;13.77;;;7.83;;
18702;SDS011;9481;48.796;9.210;2022-12-16T18:05:24;19.23;;;9.70;;
18702;SDS011;9481;48.796;9.210;2022-12-16T18:08:08;15.40;;;9.17;;
18702;SDS011;9481;48.796;9.210;2022-12-16T18:10:54;16.37;;;9.00;;
18702;SDS011;9481;48.796;9.210;2022-12-16T18:13:41;16.70;;;9.13;;
18702;SDS011;9481;48.796;9.210;2022-12-16T18:16:25;16.87;;;10.13;;
18702;SDS011;9481;48.796;9.210;2022-12-16T18:19:12;14.20;;;8.70;;